createdAt,value
2023-01-01T00:00:44.431Z,19.80
2023-01-01T00:03:11.479Z,19.90
2023-01-01T00:05:39.310Z,19.80
2023-01-01T00:08:07.034Z,19.80
2023-01-01T00:10:34.118Z,19.80
2023-01-01T00:13:01.528Z,19.80
2023-01-01T00:15:28.694Z,19.80
2023-01-01T00:17:56.250Z,19.80
2023-01-01T00:20:23.492Z,19.80
2023-01-01T00:22:55.466Z,19.80
2023-01-01T00:25:24.805Z,19.80
2023-01-01T00:27:51.933Z,19.80
2023-01-01T00:30:19.237Z,19.80
2023-01-01T00:32:55.678Z,19.80
2023-01-01T00:35:27.693Z,19.80
2023-01-01T00:37:55.417Z,19.80
2023-01-01T00:40:23.439Z,19.80
2023-01-01T00:42:50.682Z,19.80
2023-01-01T00:45:21.777Z,19.80
2023-01-01T00:47:52.131Z,19.80
2023-01-01T00:50:20.847Z,19.80
2023-01-01T00:52:49.111Z,19.70
2023-01-01T00:55:16.220Z,19.80
2023-01-01T00:57:43.224Z,19.80
2023-01-01T01:00:11.385Z,19.80
2023-01-01T01:02:38.907Z,19.80
2023-01-01T01:05:07.015Z,19.80
2023-01-01T01:07:36.755Z,19.80
2023-01-01T01:10:04.362Z,19.80
2023-01-01T01:12:31.412Z,19.80
2023-01-01T01:14:58.327Z,19.80
2023-01-01T01:17:25.529Z,19.80
2023-01-01T01:19:52.545Z,19.80
2023-01-01T01:22:24.242Z,19.90
2023-01-01T01:24:55.286Z,19.90
2023-01-01T01:27:22.173Z,19.90
2023-01-01T01:29:49.002Z,19.90
2023-01-01T01:32:15.953Z,19.90
2023-01-01T01:34:42.844Z,19.90
2023-01-01T01:37:10.127Z,19.80
2023-01-01T01:39:37.001Z,19.90
2023-01-01T01:42:04.367Z,19.70
2023-01-01T01:44:46.989Z,19.90
2023-01-01T01:47:36.134Z,19.90
2023-01-01T01:50:30.057Z,19.90
2023-01-01T01:53:16.765Z,19.90
2023-01-01T01:55:52.153Z,19.90
2023-01-01T01:58:19.638Z,19.80
2023-01-01T02:00:46.779Z,19.80
2023-01-01T02:03:46.712Z,19.90
2023-01-01T02:06:14.278Z,19.80
2023-01-01T02:08:41.219Z,19.90
2023-01-01T02:11:08.064Z,19.90
2023-01-01T02:13:38.992Z,19.90
2023-01-01T02:16:39.736Z,19.90
2023-01-01T02:19:44.122Z,19.90
2023-01-01T02:22:36.271Z,19.90
2023-01-01T02:25:28.928Z,19.90
2023-01-01T02:28:07.764Z,19.90
2023-01-01T02:30:37.063Z,19.90
2023-01-01T02:33:12.122Z,19.90
2023-01-01T02:35:55.635Z,19.90
2023-01-01T02:38:44.922Z,19.90
2023-01-01T02:41:21.802Z,19.90
2023-01-01T02:43:49.029Z,19.80
2023-01-01T02:48:48.696Z,19.90
2023-01-01T02:51:51.428Z,19.90
2023-01-01T02:54:28.856Z,19.80
2023-01-01T02:57:31.985Z,19.80
2023-01-01T03:00:17.424Z,19.70
2023-01-01T03:02:52.933Z,19.80
2023-01-01T03:06:01.658Z,19.70
2023-01-01T03:08:41.881Z,19.70
2023-01-01T03:11:13.634Z,19.70
2023-01-01T03:13:55.519Z,19.70
2023-01-01T03:16:35.320Z,19.70
2023-01-01T03:19:37.863Z,19.70
2023-01-01T03:22:10.204Z,19.70
2023-01-01T03:25:09.398Z,19.80
2023-01-01T03:27:50.725Z,19.70
2023-01-01T03:30:20.302Z,19.70
2023-01-01T03:33:03.480Z,19.70
2023-01-01T03:35:47.549Z,19.70
2023-01-01T03:38:26.297Z,19.70
2023-01-01T03:41:00.663Z,20.00
2023-01-01T03:43:41.392Z,19.70
2023-01-01T03:46:10.630Z,19.60
2023-01-01T03:49:02.601Z,19.60
2023-01-01T03:52:00.696Z,19.60
2023-01-01T03:55:06.536Z,19.60
2023-01-01T03:57:54.655Z,19.50
2023-01-01T04:00:32.554Z,19.50
2023-01-01T04:03:08.077Z,19.50
2023-01-01T04:05:41.943Z,19.40
2023-01-01T04:08:10.624Z,19.40
2023-01-01T04:10:43.020Z,19.40
2023-01-01T04:13:10.752Z,19.50
2023-01-01T04:15:37.725Z,19.30
2023-01-01T04:18:05.382Z,19.30
2023-01-01T04:20:32.895Z,19.30
2023-01-01T04:23:01.416Z,19.20
2023-01-01T04:25:29.453Z,19.30
2023-01-01T04:27:58.261Z,19.20
2023-01-01T04:30:26.839Z,19.20
2023-01-01T04:32:55.560Z,19.10
2023-01-01T04:35:22.757Z,19.10
2023-01-01T04:37:49.634Z,19.10
2023-01-01T04:40:17.473Z,19.10
2023-01-01T04:42:44.423Z,19.20
2023-01-01T04:45:14.887Z,19.00
2023-01-01T04:47:42.136Z,19.00
2023-01-01T04:50:09.771Z,19.00
2023-01-01T04:52:37.007Z,18.90
2023-01-01T04:55:04.389Z,18.90
2023-01-01T04:57:32.564Z,18.90
2023-01-01T04:59:59.452Z,19.00
2023-01-01T05:02:26.896Z,18.80
2023-01-01T05:04:54.085Z,19.10
2023-01-01T05:07:20.971Z,18.90
2023-01-01T05:09:47.956Z,18.80
2023-01-01T05:12:15.134Z,19.10
2023-01-01T05:14:42.221Z,19.00
2023-01-01T05:17:09.046Z,18.80
2023-01-01T05:19:36.173Z,18.90
2023-01-01T05:22:10.219Z,18.90
2023-01-01T05:24:38.076Z,18.80
2023-01-01T05:27:05.890Z,18.80
2023-01-01T05:29:32.763Z,18.90
2023-01-01T05:32:00.314Z,18.90
2023-01-01T05:34:27.605Z,18.80
2023-01-01T05:36:54.971Z,18.60
2023-01-01T05:39:21.814Z,18.70
2023-01-01T05:41:48.791Z,18.90
2023-01-01T05:44:17.382Z,18.70
2023-01-01T05:46:44.340Z,18.90
2023-01-01T05:49:12.846Z,18.60
2023-01-01T05:54:06.571Z,18.60
2023-01-01T05:56:33.443Z,18.50
2023-01-01T05:59:01.661Z,18.50
2023-01-01T06:01:30.836Z,18.60
2023-01-01T06:03:59.533Z,18.30
2023-01-01T06:06:30.292Z,18.50
2023-01-01T06:09:06.607Z,18.40
2023-01-01T06:11:33.891Z,18.50
2023-01-01T06:14:01.735Z,18.60
2023-01-01T06:16:30.833Z,18.40
2023-01-01T06:18:58.895Z,18.30
2023-01-01T06:21:27.805Z,18.40
2023-01-01T06:23:58.185Z,18.40
2023-01-01T06:26:32.019Z,18.30
2023-01-01T06:29:02.051Z,18.30
2023-01-01T06:31:32.917Z,18.30
2023-01-01T06:34:03.095Z,18.30
2023-01-01T06:36:30.060Z,18.30
2023-01-01T06:38:58.646Z,18.30
2023-01-01T06:41:28.351Z,18.30
2023-01-01T06:43:57.631Z,18.60
2023-01-01T06:46:42.787Z,18.30
2023-01-01T06:49:12.963Z,18.50
2023-01-01T06:51:43.209Z,18.30
2023-01-01T06:54:11.248Z,18.60
2023-01-01T06:56:38.726Z,18.40
2023-01-01T06:59:05.949Z,18.40
2023-01-01T07:01:40.139Z,18.50
2023-01-01T07:04:15.435Z,18.50
2023-01-01T07:06:43.125Z,18.40
2023-01-01T07:09:10.147Z,18.40
2023-01-01T07:11:37.129Z,18.50
2023-01-01T07:14:04.610Z,18.50
2023-01-01T07:16:31.753Z,18.50
2023-01-01T07:18:59.113Z,18.50
2023-01-01T07:21:55.064Z,18.50
2023-01-01T07:24:22.465Z,18.40
2023-01-01T07:26:50.136Z,18.50
2023-01-01T07:29:17.430Z,18.50
2023-01-01T07:31:45.636Z,18.50
2023-01-01T07:34:19.075Z,18.50
2023-01-01T07:36:46.421Z,18.50
2023-01-01T07:39:13.647Z,18.60
2023-01-01T07:41:40.804Z,18.50
2023-01-01T07:44:07.785Z,18.50
2023-01-01T07:46:36.799Z,18.60
2023-01-01T07:49:04.396Z,18.60
2023-01-01T07:51:31.459Z,18.60
2023-01-01T07:54:05.815Z,18.40
2023-01-01T07:56:35.653Z,18.60
2023-01-01T07:59:02.655Z,18.70
2023-01-01T08:01:29.837Z,18.60
2023-01-01T08:03:56.980Z,18.80
2023-01-01T08:06:23.956Z,19.00
2023-01-01T08:08:51.622Z,19.10
2023-01-01T08:11:18.556Z,18.80
2023-01-01T08:13:46.046Z,18.90
2023-01-01T08:16:13.087Z,18.90
2023-01-01T08:18:40.017Z,18.90
2023-01-01T08:21:08.728Z,19.00
2023-01-01T08:23:35.847Z,19.00
2023-01-01T08:26:03.436Z,19.00
2023-01-01T08:28:31.067Z,19.00
2023-01-01T08:30:59.505Z,19.00
2023-01-01T08:33:29.518Z,19.10
2023-01-01T08:35:56.819Z,19.10
2023-01-01T08:38:23.801Z,19.20
2023-01-01T08:40:50.718Z,19.20
2023-01-01T08:43:17.882Z,19.20
2023-01-01T08:45:45.754Z,19.20
2023-01-01T08:48:12.597Z,19.20
2023-01-01T08:50:39.638Z,19.30
2023-01-01T08:53:06.594Z,19.30
2023-01-01T08:55:33.496Z,19.30
2023-01-01T08:58:00.354Z,19.40
2023-01-01T09:00:27.488Z,19.40
2023-01-01T09:02:55.077Z,19.40
2023-01-01T09:05:22.113Z,19.40
2023-01-01T09:07:49.162Z,19.40
2023-01-01T09:10:16.270Z,19.40
2023-01-01T09:12:43.171Z,19.50
2023-01-01T09:15:17.195Z,19.50
2023-01-01T09:17:44.214Z,19.50
2023-01-01T09:20:11.421Z,19.50
2023-01-01T09:22:38.286Z,19.50
2023-01-01T09:25:05.888Z,19.50
2023-01-01T09:27:32.778Z,19.50
2023-01-01T09:30:00.177Z,19.50
2023-01-01T09:32:29.878Z,19.60
2023-01-01T09:34:57.486Z,19.60
2023-01-01T09:37:24.609Z,19.60
2023-01-01T09:39:51.568Z,19.60
2023-01-01T09:42:40.611Z,19.60
2023-01-01T09:45:30.854Z,19.60
2023-01-01T09:48:07.184Z,19.60
2023-01-01T09:50:40.447Z,19.70
2023-01-01T09:53:48.851Z,19.70
2023-01-01T09:56:23.101Z,19.70
2023-01-01T09:58:50.206Z,19.70
2023-01-01T10:01:41.208Z,19.80
2023-01-01T10:04:49.089Z,19.80
2023-01-01T10:07:29.566Z,19.80
2023-01-01T10:10:20.981Z,19.90
2023-01-01T10:13:07.273Z,19.90
2023-01-01T10:15:40.793Z,20.00
2023-01-01T10:18:19.936Z,20.10
2023-01-01T10:21:18.496Z,20.20
2023-01-01T10:24:22.263Z,20.30
2023-01-01T10:26:50.953Z,20.40
2023-01-01T10:29:33.753Z,20.40
2023-01-01T10:32:21.499Z,20.40
2023-01-01T10:34:50.571Z,20.40
2023-01-01T10:37:18.100Z,20.40
2023-01-01T10:39:47.127Z,20.40
2023-01-01T10:42:15.715Z,20.50
2023-01-01T10:44:43.689Z,20.40
2023-01-01T10:47:29.578Z,20.40
2023-01-01T10:50:05.258Z,20.40
2023-01-01T10:52:40.548Z,20.40
2023-01-01T10:55:21.211Z,20.40
2023-01-01T10:57:48.303Z,20.40
2023-01-01T11:00:25.000Z,20.40
2023-01-01T11:03:22.090Z,20.40
2023-01-01T11:06:02.679Z,20.30
2023-01-01T11:08:32.205Z,20.30
2023-01-01T11:11:01.475Z,20.30
2023-01-01T11:13:30.386Z,20.30
2023-01-01T11:15:57.950Z,20.50
2023-01-01T11:18:35.908Z,20.30
2023-01-01T11:21:06.020Z,20.30
2023-01-01T11:23:39.674Z,20.30
2023-01-01T11:26:12.620Z,20.30
2023-01-01T11:28:41.327Z,20.30
2023-01-01T11:31:20.065Z,20.30
2023-01-01T11:33:53.831Z,20.30
2023-01-01T11:36:33.712Z,20.20
2023-01-01T11:39:26.713Z,20.20
2023-01-01T11:41:56.923Z,20.20
2023-01-01T11:44:43.912Z,20.20
2023-01-01T11:47:38.298Z,20.20
2023-01-01T11:50:14.437Z,20.20
2023-01-01T11:52:50.209Z,20.20
2023-01-01T11:55:37.850Z,20.20
2023-01-01T11:58:19.803Z,20.20
2023-01-01T12:00:53.207Z,20.30
2023-01-01T12:03:45.215Z,20.30
2023-01-01T12:06:27.685Z,20.40
2023-01-01T12:09:26.191Z,20.40
2023-01-01T12:12:05.258Z,20.40
2023-01-01T12:15:24.823Z,20.40
2023-01-01T12:18:26.070Z,20.50
2023-01-01T12:21:09.874Z,20.50
2023-01-01T12:23:37.391Z,20.50
2023-01-01T12:26:58.309Z,20.50
2023-01-01T12:30:13.038Z,20.50
2023-01-01T12:33:21.224Z,20.50
2023-01-01T12:36:06.378Z,20.50
2023-01-01T12:38:51.293Z,20.50
2023-01-01T12:41:33.809Z,20.50
2023-01-01T12:44:31.828Z,20.50
2023-01-01T12:47:20.582Z,20.50
2023-01-01T12:50:12.189Z,20.50
2023-01-01T12:53:21.080Z,20.50
2023-01-01T12:55:50.942Z,20.40
2023-01-01T12:58:33.274Z,20.40
2023-01-01T13:01:21.210Z,20.40
2023-01-01T13:03:51.914Z,20.40
2023-01-01T13:06:31.363Z,20.40
2023-01-01T13:09:08.224Z,20.30
2023-01-01T13:11:41.250Z,20.30
2023-01-01T13:14:11.932Z,20.30
2023-01-01T13:16:41.878Z,20.30
2023-01-01T13:19:41.050Z,20.30
2023-01-01T13:22:26.278Z,20.20
2023-01-01T13:25:13.897Z,20.20
2023-01-01T13:28:05.122Z,20.10
2023-01-01T13:30:38.727Z,20.10
2023-01-01T13:33:26.891Z,20.20
2023-01-01T13:36:09.712Z,20.10
2023-01-01T13:38:59.498Z,20.00
2023-01-01T13:41:26.674Z,20.00
2023-01-01T13:43:59.583Z,20.00
2023-01-01T13:46:42.150Z,19.90
2023-01-01T13:50:00.701Z,19.80
2023-01-01T13:53:21.704Z,19.80
2023-01-01T13:56:34.750Z,19.80
2023-01-01T13:59:58.981Z,19.70
2023-01-01T14:02:40.977Z,19.70
2023-01-01T14:05:28.050Z,19.70
2023-01-01T14:07:55.771Z,19.70
2023-01-01T14:10:31.528Z,19.60
2023-01-01T14:13:18.139Z,19.60
2023-01-01T14:15:57.209Z,19.50
2023-01-01T14:18:52.479Z,19.50
2023-01-01T14:21:26.855Z,19.50
2023-01-01T14:24:01.244Z,19.50
2023-01-01T14:26:30.696Z,19.40
2023-01-01T14:29:00.399Z,19.40
2023-01-01T14:31:31.434Z,19.40
2023-01-01T14:33:59.155Z,19.40
2023-01-01T14:36:31.515Z,19.30
2023-01-01T14:39:00.908Z,19.30
2023-01-01T14:41:38.016Z,19.20
2023-01-01T14:44:13.947Z,19.30
2023-01-01T14:46:53.345Z,19.20
2023-01-01T14:49:36.823Z,19.10
2023-01-01T14:52:12.237Z,19.10
2023-01-01T14:54:44.814Z,19.00
2023-01-01T14:57:33.810Z,19.00
2023-01-01T15:00:00.973Z,19.00
2023-01-01T15:02:31.757Z,18.70
2023-01-01T15:05:14.568Z,18.60
2023-01-01T15:07:41.484Z,18.80
2023-01-01T15:10:13.156Z,19.00
2023-01-01T15:12:42.229Z,18.80
2023-01-01T15:15:43.825Z,18.80
2023-01-01T15:18:40.834Z,18.70
2023-01-01T15:21:38.751Z,18.70
2023-01-01T15:24:17.551Z,18.70
2023-01-01T15:26:53.623Z,18.60
2023-01-01T15:29:39.070Z,18.60
2023-01-01T15:32:13.849Z,18.50
2023-01-01T15:34:49.539Z,18.50
2023-01-01T15:37:20.059Z,18.40
2023-01-01T15:40:01.868Z,18.40
2023-01-01T15:42:38.554Z,18.40
2023-01-01T15:45:33.818Z,18.30
2023-01-01T15:48:06.660Z,18.30
2023-01-01T15:50:43.943Z,18.30
2023-01-01T15:53:15.476Z,18.30
2023-01-01T15:55:46.931Z,18.30
2023-01-01T15:58:24.082Z,18.20
2023-01-01T16:01:02.008Z,18.30
2023-01-01T16:03:32.155Z,18.20
2023-01-01T16:06:00.462Z,18.10
2023-01-01T16:08:27.856Z,18.10
2023-01-01T16:10:54.861Z,18.10
2023-01-01T16:13:21.983Z,18.00
2023-01-01T16:15:54.145Z,17.80
2023-01-01T16:18:35.202Z,17.90
2023-01-01T16:21:04.110Z,17.90
2023-01-01T16:23:31.834Z,17.80
2023-01-01T16:25:58.899Z,17.80
2023-01-01T16:28:25.823Z,17.90
2023-01-01T16:30:53.221Z,17.70
2023-01-01T16:33:22.805Z,17.70
2023-01-01T16:35:51.173Z,17.70
2023-01-01T16:38:18.604Z,17.70
2023-01-01T16:40:45.692Z,17.60
2023-01-01T16:43:17.933Z,17.60
2023-01-01T16:45:45.630Z,17.50
2023-01-01T16:48:12.744Z,17.50
2023-01-01T16:50:39.704Z,17.40
2023-01-01T16:53:06.670Z,17.30
2023-01-01T16:55:33.577Z,17.30
2023-01-01T16:58:37.990Z,17.30
2023-01-01T17:00:48.105Z,17.20
2023-01-01T17:03:15.385Z,17.20
2023-01-01T17:05:44.677Z,17.20
2023-01-01T17:08:11.975Z,17.20
2023-01-01T17:10:39.141Z,17.30
2023-01-01T17:13:06.227Z,17.20
2023-01-01T17:15:33.223Z,17.10
2023-01-01T17:18:00.782Z,17.10
2023-01-01T17:20:27.776Z,17.10
2023-01-01T17:22:54.913Z,17.10
2023-01-01T17:25:22.260Z,17.10
2023-01-01T17:27:49.275Z,17.20
2023-01-01T17:30:16.331Z,17.00
2023-01-01T17:32:43.403Z,17.00
2023-01-01T17:35:10.636Z,17.00
2023-01-01T17:37:37.581Z,17.00
2023-01-01T17:40:05.178Z,17.00
2023-01-01T17:42:32.089Z,16.90
2023-01-01T17:44:59.053Z,17.00
2023-01-01T17:47:30.897Z,16.90
2023-01-01T17:49:59.816Z,16.90
2023-01-01T17:52:27.109Z,16.90
2023-01-01T17:54:53.991Z,16.80
2023-01-01T17:57:21.056Z,16.80
2023-01-01T17:59:48.074Z,16.80
2023-01-01T18:02:15.454Z,16.90
2023-01-01T18:04:42.557Z,16.70
2023-01-01T18:07:09.423Z,16.70
2023-01-01T18:09:38.339Z,16.60
2023-01-01T18:12:06.129Z,16.60
2023-01-01T18:14:33.103Z,16.60
2023-01-01T18:17:00.277Z,16.50
2023-01-01T18:19:27.708Z,16.50
2023-01-01T18:21:55.142Z,16.50
2023-01-01T18:24:22.043Z,16.40
2023-01-01T18:26:49.251Z,16.30
2023-01-01T18:29:16.224Z,16.40
2023-01-01T18:31:44.057Z,16.30
2023-01-01T18:34:11.468Z,16.30
2023-01-01T18:36:39.327Z,16.40
2023-01-01T18:39:30.927Z,16.30
2023-01-01T18:42:21.505Z,16.20
2023-01-01T18:44:48.761Z,16.20
2023-01-01T18:47:18.915Z,16.10
2023-01-01T18:49:59.702Z,16.10
2023-01-01T18:52:28.718Z,16.00
2023-01-01T18:55:18.037Z,16.20
2023-01-01T18:57:50.123Z,16.00
2023-01-01T19:00:26.760Z,15.90
2023-01-01T19:03:04.352Z,15.80
2023-01-01T19:05:34.925Z,15.80
2023-01-01T19:08:22.907Z,15.80
2023-01-01T19:10:56.805Z,15.90
2023-01-01T19:13:42.207Z,15.80
2023-01-01T19:16:12.211Z,15.80
2023-01-01T19:18:45.299Z,15.80
2023-01-01T19:21:12.164Z,15.80
2023-01-01T19:24:00.652Z,15.80
2023-01-01T19:26:36.651Z,15.80
2023-01-01T19:29:19.205Z,15.80
2023-01-01T19:31:52.877Z,15.80
2023-01-01T19:34:20.033Z,15.80
2023-01-01T19:36:47.557Z,16.00
2023-01-01T19:39:15.573Z,15.90
2023-01-01T19:41:47.273Z,15.90
2023-01-01T19:44:17.295Z,15.90
2023-01-01T19:46:47.113Z,15.90
2023-01-01T19:49:14.076Z,16.00
2023-01-01T19:51:41.056Z,16.00
2023-01-01T19:54:07.950Z,16.10
2023-01-01T19:56:35.881Z,16.00
2023-01-01T19:59:03.203Z,16.00
2023-01-01T20:01:30.246Z,16.00
2023-01-01T20:03:58.874Z,16.00
2023-01-01T20:06:27.005Z,15.90
2023-01-01T20:08:54.783Z,16.10
2023-01-01T20:11:22.136Z,16.10
2023-01-01T20:13:49.047Z,16.10
2023-01-01T20:16:16.107Z,16.10
2023-01-01T20:18:43.136Z,16.10
2023-01-01T20:21:28.324Z,16.10
2023-01-01T20:23:56.647Z,16.10
2023-01-01T20:26:25.701Z,16.10
2023-01-01T20:29:11.213Z,16.10
2023-01-01T20:31:38.482Z,16.10
2023-01-01T20:34:05.403Z,16.10
2023-01-01T20:36:50.775Z,16.10
2023-01-01T20:39:17.703Z,16.10
2023-01-01T20:41:44.653Z,16.20
2023-01-01T20:44:11.693Z,16.30
2023-01-01T20:46:38.695Z,16.10
2023-01-01T20:49:05.989Z,16.20
2023-01-01T20:51:33.314Z,16.20
2023-01-01T20:54:00.768Z,16.10
2023-01-01T20:56:27.722Z,16.20
2023-01-01T20:58:59.587Z,16.20
2023-01-01T21:01:31.917Z,16.20
2023-01-01T21:03:58.977Z,16.40
2023-01-01T21:06:26.057Z,16.20
2023-01-01T21:08:53.271Z,16.30
2023-01-01T21:11:21.243Z,16.20
2023-01-01T21:13:49.243Z,16.20
2023-01-01T21:16:23.492Z,16.20
2023-01-01T21:18:51.029Z,16.30
2023-01-01T21:21:23.165Z,16.30
2023-01-01T21:23:51.679Z,16.60
2023-01-01T21:26:27.476Z,16.30
2023-01-01T21:28:54.980Z,16.40
2023-01-01T21:31:22.526Z,16.30
2023-01-01T21:33:49.497Z,16.30
2023-01-01T21:36:19.855Z,16.30
2023-01-01T21:38:49.169Z,16.40
2023-01-01T21:41:23.473Z,16.40
2023-01-01T21:43:55.214Z,16.30
2023-01-01T21:46:31.431Z,16.50
2023-01-01T21:49:03.578Z,16.50
2023-01-01T21:51:42.172Z,16.40
2023-01-01T21:54:21.385Z,16.40
2023-01-01T21:57:13.487Z,16.40
2023-01-01T21:59:43.912Z,16.40
2023-01-01T22:02:10.779Z,16.60
2023-01-01T22:04:49.310Z,16.50
2023-01-01T22:10:33.208Z,16.50
2023-01-01T22:13:00.980Z,16.50
2023-01-01T22:15:42.028Z,16.50
2023-01-01T22:18:11.652Z,16.50
2023-01-01T22:20:43.271Z,16.50
2023-01-01T22:23:19.252Z,16.50
2023-01-01T22:25:47.639Z,16.40
2023-01-01T22:28:23.586Z,16.60
2023-01-01T22:30:55.570Z,16.50
2023-01-01T22:33:35.487Z,16.50
2023-01-01T22:36:03.030Z,16.50
2023-01-01T22:38:33.592Z,16.40
2023-01-01T22:41:01.369Z,16.50
2023-01-01T22:43:34.902Z,16.70
2023-01-01T22:46:28.760Z,16.50
2023-01-01T22:49:05.183Z,16.50
2023-01-01T22:51:42.962Z,16.60
2023-01-01T22:54:09.908Z,16.50
2023-01-01T22:56:36.754Z,16.50
2023-01-01T22:59:04.234Z,16.60
2023-01-01T23:01:31.320Z,16.50
2023-01-01T23:03:58.340Z,16.50
2023-01-01T23:06:26.010Z,16.70
2023-01-01T23:08:53.848Z,16.30
2023-01-01T23:11:21.468Z,16.50
2023-01-01T23:14:10.270Z,16.50
2023-01-01T23:16:37.620Z,16.50
2023-01-01T23:19:05.438Z,16.50
2023-01-01T23:21:34.469Z,16.50
2023-01-01T23:24:04.646Z,16.50
2023-01-01T23:26:31.829Z,16.50
2023-01-01T23:28:58.708Z,16.40
2023-01-01T23:31:27.576Z,16.50
2023-01-01T23:33:56.390Z,16.70
2023-01-01T23:36:25.747Z,16.60
2023-01-01T23:38:53.799Z,16.40
2023-01-01T23:41:22.716Z,16.50
2023-01-01T23:43:50.273Z,16.50
2023-01-01T23:46:18.897Z,16.80
2023-01-01T23:48:47.780Z,16.60
2023-01-01T23:51:17.109Z,16.60
2023-01-01T23:53:44.230Z,16.70
2023-01-01T23:56:11.752Z,16.70
2023-01-01T23:58:39.031Z,16.60
